首页
METAR-TAF:

METAR-TAF

机场 :

郑州新郑国际机场

郑州, 中华人民共和国

纬度: 34-43N, 经度: 113-39E, 海拔: 111米

当前天气观测

该预报发布于1小时和18分钟前的15:00 UTC
风速2节,风向西
温度 -2°C
湿度 69%
气压 1037 hPa
能見度: 4000

METAR: ZHCC 131500Z 28001MPS 4000 HZ NSC M02/M07 Q1037 NOSIG

时间: 00:18 (16:18 UTC)

预报

该预报发布于7小时和12分钟前的09:06 UTC
预报有效从13日的 12点(UTC)到 14日的 12点(UTC)
风速6节,风向东北
能見度: 5000
短暂存在
从 13日的 20点(UTC)到 14日的 02点(UTC)
能見度: 2500
轻雾

TAF: ZHCC 130906Z 1312/1412 04003MPS 5000 HZ NSC TX05/1407Z TNM04/22Z TEMPO 1320/1402 2500 BR

超过4000个机场的气象观测和天气预报(METAR&TAF报告)。

可查询的气象台以黄色和红色小点在地图上表示。

将鼠标移到小点上方,可查看气象台名称。

然后点击查看天气观测和预报。

如需切换地图:点击带黑十字的绿色按钮放大地图;点击带横线的绿色按钮缩小地图;或者点击绿色箭头查看邻近地区的地图。


METAR-TAF: